메인 페이지
METAR-TAF:

METAR-TAF

공항 :

테구시갈파, 온두라스

위도: 14-03N, 경도: 087-13W, 고도: 994m

현재 날씨관측

예보는 1 시간 9분 전, 07:00시(UTC)에 발표되었습니다.
남서2kt
온도 16°C
습도 82%
기압 1021 hPa
시정 10km 이상
고도 3000ft 상공 구름 조금

METAR: MHTG 150700Z 22002KT 9999 FEW030 16/13 Q1021 A3015 NOSIG

시각: 02:09 (08:09 UTC)

예보

예보는 3 시간 44분 전, 04:25시(UTC)에 발표되었습니다.
예보 대상 시간: 15일 06시부터 16일 06시까지 (UTC)
5kt
시정 10km 이상
고도 2800ft 상공 구름 조금
전환 중
15일 08시부터 15일 10시까지 (UTC)
시정: 8000m
고도 800ft 상공 구름 조금
고도 2400ft 상공 구름 많음
전환 중
15일 13시부터 15일 15시까지 (UTC)
시정 10km 이상
고도 2800ft 상공 구름 보통
고도 8000ft 상공 구름 보통
전환 중
15일 17시부터 15일 19시까지 (UTC)
10kt, 순간 최대 풍속 20kt
전환 중
15일 23시부터 16일 01시까지 (UTC)
10kt
시정: 8000m
고도 1000ft 상공 구름 조금
고도 2600ft 상공 구름 많음
약한비

TAF: MHTG 150425Z 1506/1606 36005KT 9999 FEW028 TX25/1519Z TN14/1512Z BECMG 1508/1510 8000 FEW008 BKN024 BECMG 1513/1515 9999 SCT028 SCT080 BECMG 1517/1519 36010G20KT BECMG 1523/1601 36010KT 8000 -RA FEW010 BKN026

4,000개 이상의 공항 관측 자료 및 예보 (METAR 및 TAF 보고).

지도상에서 검색 가능한 기상관측소가 노란 점과 빨간 점으로 표시되어 있습니다.

기상관측소 명을 보려면 표시 위로 마우스를 이동하세요.

날씨 관측과 예보를 보려면 클릭하세요.

지도 변경 : 확대하려면 엑스 표시가 있는 녹색 버튼, 축소하려면 빼기 표시가 있는 녹색 버튼, 다음 페이지의 지도를 보려면 녹색 화살표를 클릭하세요.


METAR-TAF: